createdAt,value
2019-03-23T00:00:23.754Z,99.90
2019-03-23T00:02:54.274Z,99.90
2019-03-23T00:05:24.726Z,99.90
2019-03-23T00:07:55.080Z,99.90
2019-03-23T00:10:26.219Z,99.90
2019-03-23T00:12:57.264Z,99.90
2019-03-23T00:15:27.886Z,99.90
2019-03-23T00:17:58.228Z,99.90
2019-03-23T00:20:28.607Z,99.90
2019-03-23T00:22:59.356Z,99.90
2019-03-23T00:25:29.731Z,99.90
2019-03-23T00:28:00.163Z,99.90
2019-03-23T00:30:30.508Z,99.90
2019-03-23T00:33:01.273Z,99.90
2019-03-23T00:35:32.005Z,99.90
2019-03-23T00:38:03.681Z,99.90
2019-03-23T00:40:34.415Z,99.90
2019-03-23T00:43:05.134Z,99.90
2019-03-23T00:45:35.546Z,99.90
2019-03-23T00:48:06.682Z,99.90
2019-03-23T00:50:37.154Z,99.90
2019-03-23T00:53:09.958Z,99.90
2019-03-23T00:55:40.345Z,99.90
2019-03-23T00:58:10.719Z,99.90
2019-03-23T01:00:41.056Z,99.90
2019-03-23T01:03:11.926Z,99.90
2019-03-23T01:05:42.691Z,99.90
2019-03-23T01:08:13.112Z,99.90
2019-03-23T01:10:44.050Z,99.90
2019-03-23T01:13:14.505Z,99.90
2019-03-23T01:15:45.512Z,99.90
2019-03-23T01:18:16.418Z,99.90
2019-03-23T01:20:49.893Z,99.90
2019-03-23T01:23:20.105Z,99.90
2019-03-23T01:25:50.795Z,99.90
2019-03-23T01:28:22.212Z,99.90
2019-03-23T01:30:52.626Z,99.90
2019-03-23T01:33:23.120Z,99.90
2019-03-23T01:35:53.566Z,99.90
2019-03-23T01:38:24.282Z,99.90
2019-03-23T01:40:55.095Z,99.90
2019-03-23T01:43:25.841Z,99.90
2019-03-23T01:45:57.039Z,99.90
2019-03-23T01:48:27.750Z,99.90
2019-03-23T01:50:58.573Z,99.90
2019-03-23T01:53:29.000Z,99.90
2019-03-23T01:55:59.395Z,99.90
2019-03-23T01:58:29.799Z,99.90
2019-03-23T02:01:01.130Z,99.90
2019-03-23T02:03:36.059Z,99.90
2019-03-23T02:06:07.073Z,99.90
2019-03-23T02:08:37.548Z,99.90
2019-03-23T02:11:07.960Z,99.90
2019-03-23T02:13:38.315Z,99.90
2019-03-23T02:16:08.719Z,99.90
2019-03-23T02:18:39.060Z,99.90
2019-03-23T02:21:09.442Z,99.90
2019-03-23T02:23:40.777Z,99.90
2019-03-23T02:26:11.175Z,99.90
2019-03-23T02:28:41.599Z,99.90
2019-03-23T02:31:14.252Z,99.90
2019-03-23T02:33:45.139Z,99.90
2019-03-23T02:36:15.780Z,99.90
2019-03-23T02:38:47.066Z,99.90
2019-03-23T02:41:17.489Z,99.90
2019-03-23T02:43:48.329Z,99.90
2019-03-23T02:46:19.121Z,99.90
2019-03-23T02:48:49.557Z,99.90
2019-03-23T02:51:20.248Z,99.90
2019-03-23T02:53:50.644Z,99.90
2019-03-23T02:56:20.990Z,99.90
2019-03-23T02:58:52.457Z,99.90
2019-03-23T03:01:23.119Z,99.90
2019-03-23T03:03:54.336Z,99.90
2019-03-23T03:06:24.861Z,99.90
2019-03-23T03:08:57.001Z,99.90
2019-03-23T03:11:27.722Z,99.90
2019-03-23T03:13:58.116Z,99.90
2019-03-23T03:16:29.529Z,99.90
2019-03-23T03:19:00.263Z,99.90
2019-03-23T03:21:31.126Z,99.90
2019-03-23T03:24:01.503Z,99.90
2019-03-23T03:26:32.150Z,99.90
2019-03-23T03:29:03.061Z,99.90
2019-03-23T03:31:33.426Z,99.90
2019-03-23T03:34:04.146Z,99.90
2019-03-23T03:36:34.558Z,99.90
2019-03-23T03:39:06.328Z,99.90
2019-03-23T03:41:36.687Z,99.90
2019-03-23T03:44:07.080Z,99.90
2019-03-23T03:46:38.210Z,99.90
2019-03-23T03:49:12.733Z,99.90
2019-03-23T03:51:41.534Z,99.90
2019-03-23T03:54:12.566Z,99.90
2019-03-23T03:56:42.953Z,99.90
2019-03-23T03:59:13.334Z,99.90
2019-03-23T04:01:43.754Z,99.90
2019-03-23T04:04:14.616Z,99.90
2019-03-23T04:06:44.948Z,99.90
2019-03-23T04:09:15.399Z,99.90
2019-03-23T04:11:46.207Z,99.90
2019-03-23T04:14:16.908Z,99.90
2019-03-23T04:16:47.373Z,99.90
2019-03-23T04:19:18.328Z,99.90
2019-03-23T04:21:48.688Z,99.90
2019-03-23T04:24:20.121Z,99.90
2019-03-23T04:26:50.806Z,99.90
2019-03-23T04:29:21.187Z,99.90
2019-03-23T04:31:52.104Z,99.90
2019-03-23T04:34:22.782Z,99.90
2019-03-23T04:36:54.171Z,99.90
2019-03-23T04:39:24.555Z,99.90
2019-03-23T04:41:55.016Z,99.90
2019-03-23T04:44:25.493Z,99.90
2019-03-23T04:46:55.847Z,99.90
2019-03-23T04:49:26.596Z,99.90
2019-03-23T04:51:57.027Z,99.90
2019-03-23T04:54:27.803Z,99.90
2019-03-23T04:56:58.228Z,99.90
2019-03-23T04:59:28.611Z,99.90
2019-03-23T05:01:59.021Z,99.90
2019-03-23T05:04:29.426Z,99.90
2019-03-23T05:06:59.883Z,99.90
2019-03-23T05:09:30.263Z,99.90
2019-03-23T05:12:01.467Z,99.90
2019-03-23T05:14:32.486Z,99.90
2019-03-23T05:17:03.404Z,99.90
2019-03-23T05:19:34.988Z,99.90
2019-03-23T05:22:05.522Z,99.90
2019-03-23T05:24:36.105Z,99.90
2019-03-23T05:27:07.484Z,99.90
2019-03-23T05:29:38.276Z,99.90
2019-03-23T05:32:08.859Z,99.90
2019-03-23T05:34:39.348Z,99.90
2019-03-23T05:37:09.839Z,99.90
2019-03-23T05:39:40.583Z,99.90
2019-03-23T05:42:10.963Z,99.90
2019-03-23T05:44:41.648Z,99.90
2019-03-23T05:47:12.004Z,99.90
2019-03-23T05:49:42.779Z,99.90
2019-03-23T05:52:13.256Z,99.90
2019-03-23T05:54:43.843Z,99.90
2019-03-23T05:57:15.076Z,99.90
2019-03-23T05:59:45.887Z,99.90
2019-03-23T06:02:16.493Z,99.90
2019-03-23T06:04:46.919Z,99.90
2019-03-23T06:07:17.686Z,99.90
2019-03-23T06:09:48.649Z,99.90
2019-03-23T06:12:19.070Z,99.90
2019-03-23T06:14:50.591Z,99.90
2019-03-23T06:17:20.989Z,99.90
2019-03-23T06:19:51.379Z,99.90
2019-03-23T06:22:22.275Z,99.90
2019-03-23T06:24:52.746Z,99.90
2019-03-23T06:27:23.150Z,99.90
2019-03-23T06:29:54.039Z,99.90
2019-03-23T06:32:25.016Z,99.90
2019-03-23T06:34:55.463Z,99.90
2019-03-23T06:37:26.033Z,99.90
2019-03-23T06:39:57.311Z,99.90
2019-03-23T06:42:28.109Z,99.90
2019-03-23T06:44:59.167Z,99.90
2019-03-23T06:47:30.624Z,99.90
2019-03-23T06:50:01.083Z,99.90
2019-03-23T06:52:31.565Z,99.90
2019-03-23T06:55:02.074Z,99.90
2019-03-23T06:57:33.043Z,99.90
2019-03-23T07:00:04.159Z,99.90
2019-03-23T07:02:34.567Z,99.90
2019-03-23T07:05:06.376Z,99.90
2019-03-23T07:07:36.891Z,99.90
2019-03-23T07:10:09.296Z,99.90
2019-03-23T07:12:40.300Z,99.90
2019-03-23T07:15:19.776Z,99.90
2019-03-23T07:17:43.742Z,99.90
2019-03-23T07:20:16.100Z,99.90
2019-03-23T07:22:46.524Z,99.90
2019-03-23T07:25:17.470Z,99.90
2019-03-23T07:27:47.951Z,99.90
2019-03-23T07:30:19.111Z,99.90
2019-03-23T07:32:49.860Z,99.90
2019-03-23T07:35:21.098Z,99.90
2019-03-23T07:37:52.451Z,99.90
2019-03-23T07:40:23.270Z,99.90
2019-03-23T07:42:53.827Z,99.90
2019-03-23T07:45:24.404Z,99.90
2019-03-23T07:47:54.889Z,99.90
2019-03-23T07:50:25.370Z,99.00
2019-03-23T07:52:55.815Z,99.90
2019-03-23T07:55:27.166Z,99.30
2019-03-23T07:57:57.551Z,95.50
2019-03-23T08:00:28.020Z,93.10
2019-03-23T08:02:58.975Z,92.10
2019-03-23T08:05:29.896Z,93.70
2019-03-23T08:08:00.449Z,91.80
2019-03-23T08:10:33.341Z,91.20
2019-03-23T08:13:06.864Z,90.00
2019-03-23T08:15:37.324Z,85.80
2019-03-23T08:18:08.251Z,82.70
2019-03-23T08:20:38.656Z,82.50
2019-03-23T08:23:09.139Z,80.50
2019-03-23T08:25:40.068Z,79.60
2019-03-23T08:28:10.656Z,78.50
2019-03-23T08:30:41.526Z,78.10
2019-03-23T08:33:32.336Z,75.70
2019-03-23T08:36:03.214Z,77.10
2019-03-23T08:38:34.135Z,76.30
2019-03-23T08:41:04.965Z,73.70
2019-03-23T08:43:35.390Z,76.40
2019-03-23T08:46:06.770Z,72.80
2019-03-23T08:48:38.599Z,73.60
2019-03-23T08:51:09.695Z,72.70
2019-03-23T08:53:40.670Z,70.80
2019-03-23T08:56:11.501Z,69.90
2019-03-23T08:58:41.529Z,70.90
2019-03-23T09:01:12.133Z,68.60
2019-03-23T09:03:52.080Z,69.60
2019-03-23T09:06:18.016Z,69.90
2019-03-23T09:08:49.140Z,68.60
2019-03-23T09:11:20.673Z,69.20
2019-03-23T09:13:51.340Z,69.40
2019-03-23T09:16:22.148Z,71.30
2019-03-23T09:18:53.118Z,73.60
2019-03-23T09:21:23.707Z,70.20
2019-03-23T09:23:54.072Z,69.50
2019-03-23T09:26:24.786Z,69.30
2019-03-23T09:28:57.005Z,70.20
2019-03-23T09:31:27.505Z,70.00
2019-03-23T09:33:58.283Z,69.90
2019-03-23T09:36:28.695Z,71.20
2019-03-23T09:38:59.117Z,72.50
2019-03-23T09:41:29.534Z,70.30
2019-03-23T09:44:00.551Z,71.10
2019-03-23T09:46:32.996Z,70.70
2019-03-23T09:49:03.438Z,71.00
2019-03-23T09:51:34.150Z,72.00
2019-03-23T09:54:04.735Z,71.90
2019-03-23T09:56:35.762Z,70.90
2019-03-23T09:59:07.146Z,72.10
2019-03-23T10:01:38.119Z,72.90
2019-03-23T10:04:09.536Z,72.00
2019-03-23T10:06:40.027Z,72.70
2019-03-23T10:09:12.911Z,70.70
2019-03-23T10:11:43.646Z,70.00
2019-03-23T10:14:14.558Z,70.20
2019-03-23T10:16:45.106Z,69.10
2019-03-23T10:19:16.086Z,68.60
2019-03-23T10:21:47.302Z,69.10
2019-03-23T10:24:17.682Z,71.40
2019-03-23T10:26:48.375Z,68.00
2019-03-23T10:29:19.046Z,70.10
2019-03-23T10:31:51.549Z,69.00
2019-03-23T10:34:21.950Z,70.10
2019-03-23T10:36:53.135Z,71.20
2019-03-23T10:39:24.279Z,69.60
2019-03-23T10:41:54.862Z,69.20
2019-03-23T10:44:25.268Z,72.30
2019-03-23T10:46:56.094Z,69.00
2019-03-23T10:49:26.723Z,67.50
2019-03-23T10:51:57.102Z,68.10
2019-03-23T10:54:27.478Z,67.40
2019-03-23T10:56:58.273Z,68.70
2019-03-23T10:59:29.761Z,68.00
2019-03-23T11:02:00.075Z,67.20
2019-03-23T11:04:30.762Z,67.20
2019-03-23T11:07:01.119Z,66.80
2019-03-23T11:09:31.554Z,69.30
2019-03-23T11:12:03.258Z,68.10
2019-03-23T11:14:34.147Z,67.30
2019-03-23T11:17:04.863Z,67.30
2019-03-23T11:19:38.711Z,67.00
2019-03-23T11:22:09.815Z,67.90
2019-03-23T11:24:41.041Z,68.30
2019-03-23T11:27:12.187Z,68.40
2019-03-23T11:29:43.801Z,68.30
2019-03-23T11:32:14.691Z,68.10
2019-03-23T11:34:45.553Z,68.40
2019-03-23T11:37:16.374Z,69.70
2019-03-23T11:39:46.784Z,69.60
2019-03-23T11:42:17.410Z,69.40
2019-03-23T11:44:47.791Z,68.60
2019-03-23T11:47:18.092Z,69.50
2019-03-23T11:49:48.866Z,65.90
2019-03-23T11:52:19.966Z,64.50
2019-03-23T11:54:50.778Z,66.50
2019-03-23T11:57:22.003Z,64.80
2019-03-23T11:59:52.360Z,67.10
2019-03-23T12:02:23.527Z,65.90
2019-03-23T12:04:55.275Z,66.30
2019-03-23T12:07:25.683Z,66.80
2019-03-23T12:09:56.474Z,65.30
2019-03-23T12:12:28.133Z,62.00
2019-03-23T12:14:59.244Z,64.30
2019-03-23T12:17:30.351Z,64.80
2019-03-23T12:20:01.045Z,62.70
2019-03-23T12:22:31.400Z,62.50
2019-03-23T12:25:01.895Z,63.50
2019-03-23T12:27:32.608Z,60.80
2019-03-23T12:30:07.563Z,63.90
2019-03-23T12:32:35.390Z,64.70
2019-03-23T12:35:06.931Z,64.00
2019-03-23T12:37:37.328Z,65.50
2019-03-23T12:40:09.190Z,66.90
2019-03-23T12:42:39.572Z,67.00
2019-03-23T12:45:10.610Z,65.80
2019-03-23T12:47:41.438Z,66.60
2019-03-23T12:50:14.035Z,65.40
2019-03-23T12:52:44.394Z,66.00
2019-03-23T12:55:15.091Z,66.80
2019-03-23T12:57:45.743Z,64.30
2019-03-23T13:00:16.723Z,63.80
2019-03-23T13:02:47.444Z,64.10
2019-03-23T13:05:18.404Z,61.40
2019-03-23T13:07:48.738Z,62.40
2019-03-23T13:10:19.467Z,62.80
2019-03-23T13:12:50.899Z,61.60
2019-03-23T13:15:21.898Z,60.70
2019-03-23T13:17:52.851Z,60.50
2019-03-23T13:20:23.801Z,58.60
2019-03-23T13:22:54.307Z,59.30
2019-03-23T13:25:27.251Z,61.00
2019-03-23T13:27:58.209Z,60.00
2019-03-23T13:30:28.602Z,58.70
2019-03-23T13:32:58.980Z,59.80
2019-03-23T13:35:29.390Z,60.80
2019-03-23T13:37:59.808Z,58.70
2019-03-23T13:40:34.914Z,58.00
2019-03-23T13:43:08.414Z,58.10
2019-03-23T13:45:42.723Z,59.40
2019-03-23T13:48:11.593Z,58.20
2019-03-23T13:50:42.548Z,58.40
2019-03-23T13:53:13.033Z,57.30
2019-03-23T13:55:43.327Z,56.30
2019-03-23T13:58:14.822Z,58.10
2019-03-23T14:00:45.775Z,58.20
2019-03-23T14:03:16.083Z,59.80
2019-03-23T14:05:49.626Z,60.70
2019-03-23T14:08:21.043Z,60.20
2019-03-23T14:10:51.475Z,59.50
2019-03-23T14:13:21.946Z,59.50
2019-03-23T14:15:52.599Z,57.20
2019-03-23T14:18:23.940Z,61.10
2019-03-23T14:20:54.555Z,59.10
2019-03-23T14:23:25.010Z,60.20
2019-03-23T14:25:56.302Z,61.60
2019-03-23T14:28:27.987Z,58.30
2019-03-23T14:30:59.586Z,61.10
2019-03-23T14:33:30.050Z,62.40
2019-03-23T14:36:01.036Z,61.60
2019-03-23T14:38:31.461Z,62.00
2019-03-23T14:41:02.400Z,61.60
2019-03-23T14:43:33.459Z,61.20
2019-03-23T14:46:03.922Z,61.80
2019-03-23T14:48:35.117Z,62.80
2019-03-23T14:51:05.886Z,62.20
2019-03-23T14:53:36.254Z,62.20
2019-03-23T14:56:06.847Z,62.40
2019-03-23T14:58:37.521Z,62.90
2019-03-23T15:01:08.762Z,62.60
2019-03-23T15:03:39.450Z,62.40
2019-03-23T15:06:10.300Z,62.70
2019-03-23T15:08:41.395Z,63.70
2019-03-23T15:11:14.792Z,63.40
2019-03-23T15:13:47.519Z,64.10
2019-03-23T15:16:17.909Z,64.80
2019-03-23T15:18:49.520Z,64.00
2019-03-23T15:21:20.171Z,63.70
2019-03-23T15:23:51.681Z,64.00
2019-03-23T15:26:23.079Z,62.90
2019-03-23T15:28:53.991Z,63.30
2019-03-23T15:31:24.911Z,63.00
2019-03-23T15:33:55.297Z,63.30
2019-03-23T15:36:26.168Z,63.10
2019-03-23T15:38:57.513Z,63.80
2019-03-23T15:41:28.590Z,63.40
2019-03-23T15:44:00.164Z,63.10
2019-03-23T15:46:31.601Z,62.40
2019-03-23T15:49:05.699Z,62.70
2019-03-23T15:51:36.647Z,61.60
2019-03-23T15:54:08.712Z,62.00
2019-03-23T15:56:39.272Z,62.60
2019-03-23T15:59:10.184Z,62.40
2019-03-23T16:01:43.669Z,62.30
2019-03-23T16:04:14.429Z,62.40
2019-03-23T16:06:44.999Z,62.40
2019-03-23T16:09:15.935Z,62.10
2019-03-23T16:11:46.948Z,61.60
2019-03-23T16:14:17.863Z,61.20
2019-03-23T16:16:48.929Z,61.60
2019-03-23T16:19:20.396Z,61.60
2019-03-23T16:21:51.243Z,61.80
2019-03-23T16:24:23.145Z,61.90
2019-03-23T16:26:54.195Z,60.30
2019-03-23T16:29:24.888Z,60.20
2019-03-23T16:31:56.050Z,60.60
2019-03-23T16:34:26.967Z,60.50
2019-03-23T16:36:58.132Z,60.90
2019-03-23T16:39:29.091Z,61.20
2019-03-23T16:42:00.222Z,61.90
2019-03-23T16:44:30.799Z,62.50
2019-03-23T16:47:03.013Z,63.40
2019-03-23T16:49:34.086Z,64.80
2019-03-23T16:52:05.008Z,65.90
2019-03-23T16:54:35.486Z,65.70
2019-03-23T16:57:06.948Z,66.70
2019-03-23T16:59:37.481Z,67.70
2019-03-23T17:02:08.336Z,68.60
2019-03-23T17:04:39.121Z,68.90
2019-03-23T17:07:09.906Z,69.50
2019-03-23T17:09:41.675Z,70.00
2019-03-23T17:12:12.505Z,70.70
2019-03-23T17:14:42.823Z,71.00
2019-03-23T17:17:13.536Z,71.10
2019-03-23T17:19:44.549Z,71.50
2019-03-23T17:22:15.588Z,71.70
2019-03-23T17:24:46.975Z,71.80
2019-03-23T17:27:17.399Z,72.10
2019-03-23T17:29:48.209Z,72.30
2019-03-23T17:32:22.803Z,72.40
2019-03-23T17:34:54.347Z,72.50
2019-03-23T17:37:25.156Z,73.00
2019-03-23T17:39:55.654Z,73.40
2019-03-23T17:42:26.124Z,73.90
2019-03-23T17:44:56.606Z,74.20
2019-03-23T17:47:27.331Z,74.60
2019-03-23T17:49:57.654Z,75.10
2019-03-23T17:52:28.009Z,76.50
2019-03-23T17:54:58.870Z,77.20
2019-03-23T17:57:29.718Z,78.00
2019-03-23T18:00:00.414Z,78.10
2019-03-23T18:02:31.225Z,78.60
2019-03-23T18:05:01.995Z,80.00
2019-03-23T18:07:37.215Z,80.50
2019-03-23T18:10:09.414Z,80.20
2019-03-23T18:12:40.280Z,80.80
2019-03-23T18:15:11.543Z,80.50
2019-03-23T18:17:42.584Z,80.30
2019-03-23T18:20:14.644Z,81.50
2019-03-23T18:22:45.294Z,83.70
2019-03-23T18:25:16.605Z,85.40
2019-03-23T18:27:47.405Z,86.20
2019-03-23T18:30:34.283Z,86.90
2019-03-23T18:33:06.704Z,85.80
2019-03-23T18:35:37.684Z,86.20
2019-03-23T18:38:09.070Z,86.20
2019-03-23T18:40:42.275Z,87.00
2019-03-23T18:43:13.919Z,86.60
2019-03-23T18:45:45.266Z,86.80
2019-03-23T18:48:16.895Z,88.10
2019-03-23T18:50:48.350Z,88.70
2019-03-23T18:53:19.358Z,88.80
2019-03-23T18:55:51.057Z,89.70
2019-03-23T18:58:21.866Z,90.10
2019-03-23T19:00:53.588Z,90.60
2019-03-23T19:03:25.148Z,90.70
2019-03-23T19:05:56.583Z,90.40
2019-03-23T19:08:28.217Z,91.10
2019-03-23T19:11:00.278Z,91.40
2019-03-23T19:13:37.799Z,92.60
2019-03-23T19:16:06.385Z,93.00
2019-03-23T19:18:39.738Z,93.10
2019-03-23T19:21:10.721Z,92.90
2019-03-23T19:23:42.586Z,92.70
2019-03-23T19:26:14.187Z,92.70
2019-03-23T19:28:46.271Z,92.80
2019-03-23T19:31:18.107Z,93.10
2019-03-23T19:33:50.615Z,93.10
2019-03-23T19:36:22.846Z,93.20
2019-03-23T19:38:57.526Z,93.60
2019-03-23T19:41:31.618Z,94.60
2019-03-23T19:44:03.757Z,95.40
2019-03-23T19:46:35.221Z,95.70
2019-03-23T19:49:07.373Z,95.90
2019-03-23T19:51:40.231Z,95.90
2019-03-23T19:54:11.951Z,96.00
2019-03-23T19:56:44.692Z,96.20
2019-03-23T19:59:20.809Z,96.50
2019-03-23T20:01:54.451Z,96.90
2019-03-23T20:04:27.063Z,97.40
2019-03-23T20:06:58.990Z,97.90
2019-03-23T20:09:31.695Z,98.30
2019-03-23T20:12:02.715Z,98.70
2019-03-23T20:14:34.518Z,99.00
2019-03-23T20:17:06.616Z,99.60
2019-03-23T20:19:38.190Z,99.90
2019-03-23T20:22:10.983Z,99.90
2019-03-23T20:24:41.899Z,99.90
2019-03-23T20:27:12.977Z,99.90
2019-03-23T20:29:45.447Z,99.90
2019-03-23T20:32:17.313Z,99.90
2019-03-23T20:34:52.167Z,99.90
2019-03-23T20:37:25.228Z,99.90
2019-03-23T20:39:57.555Z,99.90
2019-03-23T20:42:30.087Z,99.90
2019-03-23T20:45:03.703Z,99.90
2019-03-23T20:47:36.680Z,99.90
2019-03-23T20:50:09.859Z,99.90
2019-03-23T20:52:43.034Z,99.90
2019-03-23T20:55:30.040Z,99.90
2019-03-23T20:58:00.672Z,99.90
2019-03-23T21:00:33.381Z,99.90
2019-03-23T21:03:05.601Z,99.90
2019-03-23T21:05:38.650Z,99.90
2019-03-23T21:08:10.211Z,99.90
2019-03-23T21:10:41.724Z,99.90
2019-03-23T21:13:12.657Z,99.90
2019-03-23T21:15:44.838Z,99.90
2019-03-23T21:18:16.723Z,99.90
2019-03-23T21:20:49.754Z,99.90
2019-03-23T21:23:21.669Z,99.90
2019-03-23T21:25:55.495Z,99.90
2019-03-23T21:28:31.512Z,99.90
2019-03-23T21:31:03.669Z,99.90
2019-03-23T21:33:38.929Z,99.90
2019-03-23T21:36:10.271Z,99.90
2019-03-23T21:38:42.114Z,99.90
2019-03-23T21:41:14.140Z,99.90
2019-03-23T21:43:46.333Z,99.90
2019-03-23T21:46:22.020Z,99.90
2019-03-23T21:48:53.176Z,99.90
2019-03-23T21:51:24.687Z,99.90
2019-03-23T21:53:56.080Z,99.90
2019-03-23T21:56:26.993Z,99.90
2019-03-23T21:59:00.606Z,99.90
2019-03-23T22:01:31.423Z,99.90
2019-03-23T22:04:02.760Z,99.90
2019-03-23T22:06:33.981Z,99.90
2019-03-23T22:09:06.918Z,99.90
2019-03-23T22:11:38.302Z,99.90
2019-03-23T22:14:10.518Z,99.90
2019-03-23T22:16:43.686Z,99.90
2019-03-23T22:19:15.284Z,99.90
2019-03-23T22:21:47.624Z,99.90
2019-03-23T22:24:18.963Z,99.90
2019-03-23T22:26:52.145Z,99.90
2019-03-23T22:29:23.164Z,99.90
2019-03-23T22:31:55.789Z,99.90
2019-03-23T22:34:26.954Z,99.90
2019-03-23T22:36:59.764Z,99.90
2019-03-23T22:39:31.668Z,99.90
2019-03-23T22:42:03.587Z,99.90
2019-03-23T22:44:34.368Z,99.90
2019-03-23T22:47:05.375Z,99.90
2019-03-23T22:49:37.181Z,99.90
2019-03-23T22:52:08.121Z,99.90
2019-03-23T22:54:39.111Z,99.90
2019-03-23T22:57:12.534Z,99.90
2019-03-23T22:59:43.454Z,99.90
2019-03-23T23:02:15.341Z,99.90
2019-03-23T23:04:46.063Z,99.90
2019-03-23T23:07:17.095Z,99.90
2019-03-23T23:09:47.642Z,99.90
2019-03-23T23:12:18.153Z,99.90
2019-03-23T23:14:48.708Z,99.90
2019-03-23T23:17:19.635Z,99.90
2019-03-23T23:19:51.533Z,99.90
2019-03-23T23:22:22.503Z,99.90
2019-03-23T23:24:53.327Z,99.90
2019-03-23T23:27:24.252Z,99.90
2019-03-23T23:29:54.741Z,99.90
2019-03-23T23:32:25.536Z,99.90
2019-03-23T23:34:57.216Z,99.90
2019-03-23T23:37:27.837Z,99.90
2019-03-23T23:39:59.017Z,99.90
2019-03-23T23:42:30.064Z,99.90
2019-03-23T23:45:00.446Z,99.90
2019-03-23T23:47:30.802Z,99.90
2019-03-23T23:50:01.154Z,99.90
2019-03-23T23:52:31.546Z,99.90
2019-03-23T23:55:02.265Z,99.90
2019-03-23T23:57:33.127Z,99.90
